createdAt,value
2022-09-14T00:00:02.807Z,77.55
2022-09-14T00:02:43.225Z,77.83
2022-09-14T00:04:57.900Z,78.15
2022-09-14T00:07:11.679Z,78.10
2022-09-14T00:09:27.460Z,77.47
2022-09-14T00:11:42.595Z,77.12
2022-09-14T00:13:57.212Z,77.14
2022-09-14T00:16:16.894Z,77.10
2022-09-14T00:18:30.559Z,76.94
2022-09-14T00:20:44.162Z,76.71
2022-09-14T00:22:57.736Z,76.76
2022-09-14T00:25:12.747Z,76.95
2022-09-14T00:27:26.335Z,77.18
2022-09-14T00:29:40.057Z,76.85
2022-09-14T00:31:53.746Z,77.18
2022-09-14T00:34:08.305Z,77.51
2022-09-14T00:36:23.868Z,77.81
2022-09-14T00:38:37.675Z,77.75
2022-09-14T00:40:59.773Z,78.13
2022-09-14T00:43:20.190Z,78.59
2022-09-14T00:45:34.578Z,78.76
2022-09-14T00:47:51.547Z,78.66
2022-09-14T00:50:08.426Z,78.80
2022-09-14T00:52:25.721Z,78.67
2022-09-14T00:54:39.921Z,79.22
2022-09-14T00:56:55.201Z,79.21
2022-09-14T00:59:16.086Z,79.28
2022-09-14T01:01:30.284Z,79.22
2022-09-14T01:03:44.071Z,79.12
2022-09-14T01:06:08.311Z,79.11
2022-09-14T01:08:39.670Z,79.28
2022-09-14T01:11:09.401Z,79.36
2022-09-14T01:13:34.431Z,79.43
2022-09-14T01:15:57.721Z,79.37
2022-09-14T01:18:17.749Z,79.43
2022-09-14T01:20:37.961Z,79.31
2022-09-14T01:22:56.741Z,79.38
2022-09-14T01:25:26.073Z,79.54
2022-09-14T01:27:43.103Z,79.61
2022-09-14T01:30:05.197Z,79.54
2022-09-14T01:32:25.593Z,79.69
2022-09-14T01:34:44.139Z,79.99
2022-09-14T01:37:02.911Z,80.12
2022-09-14T01:39:19.104Z,80.12
2022-09-14T01:41:35.265Z,80.16
2022-09-14T01:43:52.988Z,80.05
2022-09-14T01:46:14.085Z,80.08
2022-09-14T01:48:34.540Z,80.26
2022-09-14T01:50:50.314Z,80.64
2022-09-14T01:53:09.996Z,80.69
2022-09-14T01:55:29.271Z,80.68
2022-09-14T01:57:46.640Z,80.61
2022-09-14T02:00:05.034Z,80.48
2022-09-14T02:02:22.267Z,80.31
2022-09-14T02:04:42.938Z,80.24
2022-09-14T02:06:57.805Z,80.44
2022-09-14T02:09:13.872Z,80.73
2022-09-14T02:11:27.746Z,80.80
2022-09-14T02:13:41.387Z,80.85
2022-09-14T02:15:55.877Z,80.71
2022-09-14T02:18:09.850Z,80.78
2022-09-14T02:20:30.241Z,80.92
2022-09-14T02:22:43.865Z,80.81
2022-09-14T02:24:58.161Z,80.67
2022-09-14T02:27:12.920Z,80.71
2022-09-14T02:29:26.650Z,80.69
2022-09-14T02:31:51.447Z,80.59
2022-09-14T02:34:12.927Z,80.50
2022-09-14T02:36:36.302Z,80.54
2022-09-14T02:38:54.937Z,80.76
2022-09-14T02:41:15.985Z,80.74
2022-09-14T02:43:39.986Z,80.72
2022-09-14T02:46:05.318Z,80.65
2022-09-14T02:48:26.508Z,80.60
2022-09-14T02:50:44.569Z,80.79
2022-09-14T02:53:08.482Z,80.96
2022-09-14T02:55:26.975Z,81.08
2022-09-14T02:58:07.808Z,81.26
2022-09-14T03:00:22.198Z,81.17
2022-09-14T03:02:35.759Z,81.20
2022-09-14T03:04:49.368Z,81.58
2022-09-14T03:07:03.110Z,81.52
2022-09-14T03:09:16.794Z,81.67
2022-09-14T03:11:30.283Z,81.65
2022-09-14T03:13:44.197Z,81.61
2022-09-14T03:15:57.996Z,81.83
2022-09-14T03:18:14.462Z,81.91
2022-09-14T03:20:30.446Z,82.13
2022-09-14T03:22:44.417Z,82.18
2022-09-14T03:24:58.174Z,82.15
2022-09-14T03:27:11.966Z,82.11
2022-09-14T03:29:26.080Z,82.38
2022-09-14T03:31:40.406Z,82.30
2022-09-14T03:33:56.290Z,82.28
2022-09-14T03:36:16.893Z,82.36
2022-09-14T03:38:31.412Z,82.49
2022-09-14T03:40:45.334Z,82.49
2022-09-14T03:42:59.216Z,82.45
2022-09-14T03:45:14.398Z,82.48
2022-09-14T03:47:27.958Z,82.47
2022-09-14T03:49:41.888Z,82.47
2022-09-14T03:51:59.689Z,82.36
2022-09-14T03:54:14.091Z,82.11
2022-09-14T03:56:28.716Z,82.11
2022-09-14T03:58:43.128Z,82.14
2022-09-14T04:00:57.146Z,82.23
2022-09-14T04:03:11.124Z,82.26
2022-09-14T04:05:25.155Z,82.30
2022-09-14T04:07:39.345Z,82.39
2022-09-14T04:09:53.418Z,82.41
2022-09-14T04:12:08.379Z,82.39
2022-09-14T04:14:22.192Z,82.35
2022-09-14T04:16:36.061Z,82.55
2022-09-14T04:18:50.192Z,82.58
2022-09-14T04:21:08.492Z,82.48
2022-09-14T04:23:22.966Z,82.40
2022-09-14T04:25:36.754Z,82.32
2022-09-14T04:28:04.156Z,82.37
2022-09-14T04:30:24.908Z,82.51
2022-09-14T04:32:38.857Z,82.65
2022-09-14T04:34:53.013Z,82.55
2022-09-14T04:37:06.724Z,82.79
2022-09-14T04:39:20.788Z,82.99
2022-09-14T04:41:35.212Z,83.17
2022-09-14T04:43:50.967Z,83.28
2022-09-14T04:46:08.788Z,83.50
2022-09-14T04:48:22.805Z,83.63
2022-09-14T04:50:36.397Z,83.74
2022-09-14T04:52:49.936Z,83.95
2022-09-14T04:55:03.817Z,84.04
2022-09-14T04:57:17.412Z,84.33
2022-09-14T04:59:31.078Z,84.46
2022-09-14T05:01:46.769Z,84.65
2022-09-14T05:04:02.082Z,84.98
2022-09-14T05:06:17.132Z,85.03
2022-09-14T05:08:30.880Z,85.21
2022-09-14T05:10:44.424Z,85.45
2022-09-14T05:12:57.962Z,85.57
2022-09-14T05:15:14.341Z,85.71
2022-09-14T05:17:27.984Z,85.83
2022-09-14T05:19:41.639Z,86.10
2022-09-14T05:21:55.631Z,86.24
2022-09-14T05:24:11.373Z,86.23
2022-09-14T05:26:25.073Z,86.18
2022-09-14T05:28:40.152Z,86.29
2022-09-14T05:30:53.850Z,86.37
2022-09-14T05:33:07.482Z,86.47
2022-09-14T05:35:21.374Z,86.32
2022-09-14T05:37:35.032Z,86.12
2022-09-14T05:39:48.602Z,86.14
2022-09-14T05:42:02.284Z,86.19
2022-09-14T05:44:15.923Z,86.40
2022-09-14T05:46:29.711Z,86.54
2022-09-14T05:48:44.414Z,86.61
2022-09-14T05:51:04.894Z,86.70
2022-09-14T05:53:18.999Z,86.91
2022-09-14T05:55:32.916Z,87.04
2022-09-14T05:57:46.412Z,87.06
2022-09-14T05:59:59.953Z,87.19
2022-09-14T06:02:17.546Z,87.17
2022-09-14T06:04:32.228Z,87.19
2022-09-14T06:06:56.164Z,87.21
2022-09-14T06:09:20.106Z,87.00
2022-09-14T06:11:37.542Z,87.04
2022-09-14T06:13:51.845Z,86.95
2022-09-14T06:16:08.134Z,87.03
2022-09-14T06:18:21.792Z,87.30
2022-09-14T06:20:35.366Z,87.23
2022-09-14T06:22:49.147Z,87.26
2022-09-14T06:25:02.807Z,87.27
2022-09-14T06:27:16.787Z,87.09
2022-09-14T06:29:30.570Z,87.13
2022-09-14T06:31:44.181Z,87.14
2022-09-14T06:33:59.160Z,87.04
2022-09-14T06:36:15.251Z,87.15
2022-09-14T06:38:29.277Z,87.24
2022-09-14T06:40:43.050Z,87.19
2022-09-14T06:42:56.646Z,87.27
2022-09-14T06:45:11.278Z,87.30
2022-09-14T06:47:25.287Z,87.28
2022-09-14T06:49:38.960Z,87.12
2022-09-14T06:51:55.993Z,86.99
2022-09-14T06:54:10.517Z,86.95
2022-09-14T06:56:24.968Z,86.77
2022-09-14T06:58:39.632Z,86.67
2022-09-14T07:00:53.329Z,86.50
2022-09-14T07:03:07.818Z,86.52
2022-09-14T07:05:23.600Z,86.77
2022-09-14T07:07:37.282Z,86.79
2022-09-14T07:09:50.827Z,86.85
2022-09-14T07:12:04.507Z,86.86
2022-09-14T07:14:21.455Z,86.83
2022-09-14T07:16:36.783Z,86.93
2022-09-14T07:18:50.486Z,86.97
2022-09-14T07:21:08.499Z,86.79
2022-09-14T07:23:22.280Z,86.47
2022-09-14T07:25:35.912Z,86.67
2022-09-14T07:27:49.579Z,86.86
2022-09-14T07:30:03.287Z,86.85
2022-09-14T07:32:16.969Z,86.80
2022-09-14T07:34:31.046Z,86.77
2022-09-14T07:36:45.352Z,86.75
2022-09-14T07:38:59.417Z,86.89
2022-09-14T07:41:13.555Z,86.88
2022-09-14T07:43:27.073Z,86.67
2022-09-14T07:45:41.968Z,86.79
2022-09-14T07:47:55.954Z,86.74
2022-09-14T07:50:10.114Z,86.67
2022-09-14T07:52:23.782Z,86.82
2022-09-14T07:54:37.668Z,86.63
2022-09-14T07:56:51.871Z,86.55
2022-09-14T08:01:40.469Z,86.65
2022-09-14T08:03:54.100Z,86.71
2022-09-14T08:06:10.035Z,86.74
2022-09-14T08:08:23.190Z,86.53
2022-09-14T08:10:38.236Z,86.62
2022-09-14T08:12:53.548Z,86.64
2022-09-14T08:15:06.643Z,86.57
2022-09-14T08:17:19.696Z,86.28
2022-09-14T08:19:33.075Z,86.29
2022-09-14T08:21:47.465Z,86.47
2022-09-14T08:24:00.901Z,86.50
2022-09-14T08:26:15.210Z,86.59
2022-09-14T08:28:28.203Z,86.61
2022-09-14T08:30:42.629Z,86.50
2022-09-14T08:32:58.951Z,86.40
2022-09-14T08:35:15.324Z,86.28
2022-09-14T08:37:28.766Z,86.43
2022-09-14T08:39:42.154Z,86.39
2022-09-14T08:42:00.003Z,86.48
2022-09-14T08:44:21.633Z,86.34
2022-09-14T08:46:37.684Z,86.41
2022-09-14T08:48:52.680Z,86.42
2022-09-14T08:51:06.910Z,86.38
2022-09-14T08:53:20.242Z,86.29
2022-09-14T08:55:41.600Z,86.36
2022-09-14T08:57:59.711Z,86.55
2022-09-14T09:00:20.774Z,86.77
2022-09-14T09:03:03.442Z,86.87
2022-09-14T09:05:38.700Z,86.84
2022-09-14T09:07:59.526Z,86.79
2022-09-14T09:10:16.000Z,86.94
2022-09-14T09:12:33.494Z,87.05
2022-09-14T09:14:51.930Z,87.11
2022-09-14T09:17:08.079Z,87.10
2022-09-14T09:19:28.800Z,86.87
2022-09-14T09:21:45.738Z,86.63
2022-09-14T09:24:02.769Z,86.48
2022-09-14T09:26:26.872Z,86.62
2022-09-14T09:28:44.271Z,86.49
2022-09-14T09:30:58.126Z,86.57
2022-09-14T09:33:16.000Z,86.58
2022-09-14T09:35:41.292Z,86.56
2022-09-14T09:38:03.264Z,86.71
2022-09-14T09:40:24.300Z,86.74
2022-09-14T09:42:37.534Z,86.76
2022-09-14T09:45:05.654Z,86.92
2022-09-14T09:47:19.108Z,86.93
2022-09-14T09:49:36.684Z,86.90
2022-09-14T09:51:50.855Z,86.99
2022-09-14T09:54:24.603Z,86.93
2022-09-14T09:56:40.709Z,86.97
2022-09-14T09:58:54.653Z,87.11
2022-09-14T10:01:12.628Z,87.07
2022-09-14T10:03:35.407Z,87.03
2022-09-14T10:05:48.642Z,86.92
2022-09-14T10:08:06.899Z,86.93
2022-09-14T10:10:23.178Z,86.76
2022-09-14T10:12:37.793Z,86.60
2022-09-14T10:14:54.032Z,86.48
2022-09-14T10:17:24.788Z,86.44
2022-09-14T10:19:40.317Z,86.28
2022-09-14T10:22:19.286Z,86.34
2022-09-14T10:24:36.375Z,86.40
2022-09-14T10:26:49.644Z,86.67
2022-09-14T10:29:30.315Z,86.91
2022-09-14T10:31:45.032Z,86.89
2022-09-14T10:34:00.499Z,87.05
2022-09-14T10:36:24.724Z,87.07
2022-09-14T10:38:43.581Z,87.13
2022-09-14T10:41:06.952Z,86.95
2022-09-14T10:43:30.168Z,86.91
2022-09-14T10:45:49.477Z,86.75
2022-09-14T10:48:22.745Z,87.06
2022-09-14T10:50:48.346Z,87.17
2022-09-14T10:53:13.685Z,87.16
2022-09-14T10:55:43.360Z,87.21
2022-09-14T10:58:03.657Z,87.23
2022-09-14T11:00:22.964Z,87.26
2022-09-14T11:02:56.560Z,87.17
2022-09-14T11:05:18.845Z,87.04
2022-09-14T11:07:40.419Z,87.10
2022-09-14T11:10:00.628Z,87.05
2022-09-14T11:12:22.890Z,87.16
2022-09-14T11:14:58.963Z,87.20
2022-09-14T11:17:28.243Z,87.23
2022-09-14T11:19:55.676Z,87.43
2022-09-14T11:22:15.784Z,87.40
2022-09-14T11:24:37.456Z,87.47
2022-09-14T11:26:56.834Z,87.44
2022-09-14T11:29:21.932Z,87.41
2022-09-14T11:31:41.863Z,87.28
2022-09-14T11:34:00.418Z,87.24
2022-09-14T11:36:19.260Z,87.20
2022-09-14T11:38:45.296Z,87.15
2022-09-14T11:41:05.485Z,87.35
2022-09-14T11:43:22.195Z,87.41
2022-09-14T11:45:39.855Z,87.58
2022-09-14T11:47:58.521Z,87.42
2022-09-14T11:50:20.621Z,87.18
2022-09-14T11:52:36.079Z,86.90
2022-09-14T11:54:50.253Z,86.92
2022-09-14T11:57:06.158Z,86.98
2022-09-14T11:59:51.866Z,86.97
2022-09-14T12:02:55.867Z,86.87
2022-09-14T12:05:33.335Z,86.84
2022-09-14T12:08:41.889Z,86.72
2022-09-14T12:11:27.255Z,86.66
2022-09-14T12:13:40.983Z,86.54
2022-09-14T12:16:04.243Z,86.72
2022-09-14T12:18:28.073Z,86.84
2022-09-14T12:20:53.891Z,86.99
2022-09-14T12:23:22.123Z,86.86
2022-09-14T12:25:35.647Z,86.85
2022-09-14T12:27:51.413Z,86.78
2022-09-14T12:30:04.993Z,86.65
2022-09-14T12:32:42.567Z,86.65
2022-09-14T12:35:31.511Z,86.75
2022-09-14T12:37:44.788Z,86.98
2022-09-14T12:40:38.384Z,87.04
2022-09-14T12:42:51.586Z,87.18
2022-09-14T12:45:24.745Z,87.30
2022-09-14T12:47:56.108Z,87.35
2022-09-14T12:50:18.973Z,87.44
2022-09-14T12:52:47.652Z,87.50
2022-09-14T12:55:17.858Z,87.24
2022-09-14T12:57:41.119Z,86.87
2022-09-14T13:00:02.375Z,86.82
2022-09-14T13:02:44.486Z,86.89
2022-09-14T13:05:01.644Z,86.99
2022-09-14T13:07:21.501Z,86.82
2022-09-14T13:09:36.277Z,86.58
2022-09-14T13:11:51.082Z,86.56
2022-09-14T13:14:05.642Z,86.60
2022-09-14T13:16:28.490Z,86.80
2022-09-14T13:18:42.772Z,86.81
2022-09-14T13:20:59.304Z,86.77
2022-09-14T13:23:25.718Z,86.72
2022-09-14T13:25:41.753Z,86.73
2022-09-14T13:27:55.859Z,86.48
2022-09-14T13:30:21.481Z,86.43
2022-09-14T13:32:36.639Z,86.41
2022-09-14T13:34:50.283Z,86.58
2022-09-14T13:37:04.180Z,86.58
2022-09-14T13:39:29.433Z,86.56
2022-09-14T13:41:48.862Z,86.59
2022-09-14T13:44:03.861Z,86.49
2022-09-14T13:46:20.411Z,86.20
2022-09-14T13:48:34.022Z,86.03
2022-09-14T13:50:50.242Z,86.17
2022-09-14T13:53:04.371Z,86.06
2022-09-14T13:55:28.993Z,85.95
2022-09-14T13:57:42.191Z,86.20
2022-09-14T14:00:19.359Z,86.29
2022-09-14T14:02:34.521Z,86.39
2022-09-14T14:04:54.218Z,86.36
2022-09-14T14:07:10.539Z,86.41
2022-09-14T14:09:23.807Z,86.32
2022-09-14T14:11:40.320Z,86.25
2022-09-14T14:13:53.561Z,86.37
2022-09-14T14:16:20.329Z,86.65
2022-09-14T14:18:45.371Z,86.67
2022-09-14T14:21:07.655Z,86.84
2022-09-14T14:23:26.561Z,86.94
2022-09-14T14:25:45.859Z,87.12
2022-09-14T14:28:05.287Z,87.22
2022-09-14T14:30:22.973Z,87.33
2022-09-14T14:32:37.251Z,87.30
2022-09-14T14:34:50.651Z,87.28
2022-09-14T14:37:04.029Z,87.04
2022-09-14T14:39:17.525Z,87.11
2022-09-14T14:41:31.033Z,87.36
2022-09-14T14:43:44.727Z,87.54
2022-09-14T14:46:00.361Z,87.61
2022-09-14T14:48:16.502Z,87.59
2022-09-14T14:50:32.270Z,87.64
2022-09-14T14:52:45.859Z,87.73
2022-09-14T14:54:59.041Z,87.85
2022-09-14T14:57:12.457Z,87.98
2022-09-14T14:59:33.341Z,87.90
2022-09-14T15:01:46.694Z,87.90
2022-09-14T15:04:00.164Z,87.87
2022-09-14T15:06:23.457Z,88.00
2022-09-14T15:08:36.671Z,88.02
2022-09-14T15:10:50.611Z,88.25
2022-09-14T15:13:19.568Z,87.95
2022-09-14T15:15:32.952Z,87.99
2022-09-14T15:17:46.176Z,88.01
2022-09-14T15:19:59.604Z,88.18
2022-09-14T15:22:15.397Z,87.96
2022-09-14T15:24:28.771Z,87.95
2022-09-14T15:26:42.200Z,88.19
2022-09-14T15:28:55.559Z,88.32
2022-09-14T15:31:09.027Z,88.40
2022-09-14T15:33:22.462Z,88.46
2022-09-14T15:35:35.678Z,88.50
2022-09-14T15:37:50.026Z,88.63
2022-09-14T15:40:03.828Z,88.80
2022-09-14T15:42:17.153Z,88.84
2022-09-14T15:44:32.051Z,88.73
2022-09-14T15:46:46.509Z,88.83
2022-09-14T15:49:00.981Z,88.87
2022-09-14T15:51:36.304Z,88.91
2022-09-14T15:53:49.639Z,88.87
2022-09-14T15:56:03.040Z,88.68
2022-09-14T15:58:16.841Z,88.84
2022-09-14T16:00:30.255Z,88.72
2022-09-14T16:02:43.427Z,88.61
2022-09-14T16:04:56.697Z,88.50
2022-09-14T16:07:11.870Z,88.43
2022-09-14T16:09:25.296Z,88.56
2022-09-14T16:11:40.150Z,88.79
2022-09-14T16:13:54.040Z,88.90
2022-09-14T16:16:16.557Z,89.21
2022-09-14T16:18:28.696Z,89.29
2022-09-14T16:20:43.625Z,89.45
2022-09-14T16:22:57.307Z,89.24
2022-09-14T16:25:11.180Z,88.86
2022-09-14T16:27:24.724Z,88.64
2022-09-14T16:29:38.117Z,88.93
2022-09-14T16:31:52.410Z,88.97
2022-09-14T16:34:08.433Z,89.14
2022-09-14T16:36:23.268Z,89.30
2022-09-14T16:38:36.624Z,89.36
2022-09-14T16:40:49.803Z,89.09
2022-09-14T16:43:03.228Z,88.97
2022-09-14T16:45:17.130Z,88.86
2022-09-14T16:47:30.758Z,89.12
2022-09-14T16:49:44.095Z,89.19
2022-09-14T16:51:57.485Z,88.97
2022-09-14T16:54:11.095Z,88.85
2022-09-14T16:56:25.899Z,88.87
2022-09-14T16:58:39.487Z,88.89
2022-09-14T17:00:52.795Z,88.86
2022-09-14T17:03:06.197Z,88.77
2022-09-14T17:05:19.409Z,89.00
2022-09-14T17:07:32.776Z,88.83
2022-09-14T17:09:46.612Z,89.14
2022-09-14T17:12:00.901Z,89.68
2022-09-14T17:14:17.251Z,89.85
2022-09-14T17:16:31.355Z,89.76
2022-09-14T17:18:46.132Z,89.70
2022-09-14T17:21:03.965Z,89.10
2022-09-14T17:23:17.150Z,88.50
2022-09-14T17:25:30.487Z,88.39
2022-09-14T17:27:43.804Z,88.26
2022-09-14T17:29:57.203Z,88.32
2022-09-14T17:32:14.763Z,88.31
2022-09-14T17:34:28.413Z,87.20
2022-09-14T17:36:41.820Z,87.06
2022-09-14T17:38:55.498Z,86.93
2022-09-14T17:41:10.631Z,86.76
2022-09-14T17:43:24.681Z,86.84
2022-09-14T17:45:54.076Z,87.10
2022-09-14T17:48:07.487Z,87.25
2022-09-14T17:50:22.226Z,87.66
2022-09-14T17:52:35.420Z,88.22
2022-09-14T17:54:48.651Z,87.58
2022-09-14T17:57:01.814Z,87.41
2022-09-14T17:59:18.741Z,86.93
2022-09-14T18:01:32.088Z,87.36
2022-09-14T18:03:46.820Z,87.62
2022-09-14T18:06:02.543Z,87.36
2022-09-14T18:08:15.814Z,86.88
2022-09-14T18:10:29.161Z,86.39
2022-09-14T18:12:42.329Z,85.91
2022-09-14T18:14:55.638Z,84.71
2022-09-14T18:17:09.025Z,85.10
2022-09-14T18:19:22.694Z,85.06
2022-09-14T18:21:35.889Z,84.84
2022-09-14T18:23:51.264Z,84.72
2022-09-14T18:26:07.986Z,84.82
2022-09-14T18:28:21.219Z,84.76
2022-09-14T18:30:34.387Z,84.59
2022-09-14T18:32:48.248Z,84.53
2022-09-14T18:35:02.231Z,84.39
2022-09-14T18:37:15.552Z,84.55
2022-09-14T18:39:28.755Z,84.25
2022-09-14T18:41:42.283Z,83.98
2022-09-14T18:43:57.779Z,83.53
2022-09-14T18:46:13.696Z,83.84
2022-09-14T18:48:26.848Z,83.67
2022-09-14T18:50:40.941Z,83.72
2022-09-14T18:52:54.335Z,83.28
2022-09-14T18:55:07.782Z,83.14
2022-09-14T18:57:21.155Z,82.69
2022-09-14T18:59:34.492Z,82.14
2022-09-14T19:01:48.282Z,81.52
2022-09-14T19:04:01.597Z,81.52
2022-09-14T19:06:18.071Z,81.75
2022-09-14T19:08:31.722Z,82.24
2022-09-14T19:10:45.207Z,82.71
2022-09-14T19:12:58.590Z,82.76
2022-09-14T19:15:13.401Z,82.86
2022-09-14T19:17:26.722Z,82.97
2022-09-14T19:19:39.872Z,82.94
2022-09-14T19:21:53.108Z,82.92
2022-09-14T19:24:07.399Z,83.52
2022-09-14T19:26:22.085Z,83.59
2022-09-14T19:28:35.216Z,83.88
2022-09-14T19:30:50.005Z,84.05
2022-09-14T19:33:03.577Z,84.26
2022-09-14T19:35:17.203Z,84.37
2022-09-14T19:37:32.830Z,84.34
2022-09-14T19:39:46.168Z,84.47
2022-09-14T19:41:59.479Z,84.63
2022-09-14T19:44:14.108Z,84.64
2022-09-14T19:46:27.637Z,85.09
2022-09-14T19:48:41.966Z,85.44
2022-09-14T19:50:55.969Z,85.12
2022-09-14T19:53:09.207Z,84.93
2022-09-14T19:55:22.724Z,85.17
2022-09-14T19:57:37.791Z,85.00
2022-09-14T19:59:51.024Z,85.16
2022-09-14T20:02:04.356Z,85.57
2022-09-14T20:04:19.538Z,85.61
2022-09-14T20:06:34.736Z,85.79
2022-09-14T20:08:48.154Z,85.60
2022-09-14T20:11:06.395Z,85.35
2022-09-14T20:13:20.063Z,85.37
2022-09-14T20:15:34.720Z,85.95
2022-09-14T20:17:48.010Z,86.44
2022-09-14T20:20:01.392Z,86.28
2022-09-14T20:22:16.815Z,85.31
2022-09-14T20:24:33.551Z,85.27
2022-09-14T20:26:47.074Z,85.59
2022-09-14T20:29:02.650Z,85.62
2022-09-14T20:31:18.017Z,85.89
2022-09-14T20:33:31.459Z,84.60
2022-09-14T20:35:46.505Z,84.18
2022-09-14T20:38:02.746Z,83.86
2022-09-14T20:40:16.776Z,83.59
2022-09-14T20:42:30.123Z,84.17
2022-09-14T20:44:43.400Z,84.23
2022-09-14T20:46:56.899Z,84.39
2022-09-14T20:49:11.479Z,84.19
2022-09-14T20:51:26.215Z,84.02
2022-09-14T20:53:43.372Z,84.13
2022-09-14T20:55:56.886Z,84.36
2022-09-14T20:58:10.149Z,85.11
2022-09-14T21:00:24.009Z,84.81
2022-09-14T21:02:38.860Z,84.86
2022-09-14T21:04:52.343Z,85.23
2022-09-14T21:07:05.420Z,84.63
2022-09-14T21:09:19.572Z,84.01
2022-09-14T21:11:34.437Z,84.04
2022-09-14T21:13:48.879Z,83.94
2022-09-14T21:16:02.230Z,83.93
2022-09-14T21:18:19.973Z,83.48
2022-09-14T21:20:34.287Z,82.39
2022-09-14T21:22:50.467Z,82.81
2022-09-14T21:25:03.747Z,81.96
2022-09-14T21:27:16.987Z,82.50
2022-09-14T21:29:30.368Z,83.40
2022-09-14T21:31:43.934Z,83.57
2022-09-14T21:34:00.093Z,83.80
2022-09-14T21:36:16.735Z,82.16
2022-09-14T21:38:29.971Z,80.84
2022-09-14T21:40:46.909Z,79.63
2022-09-14T21:43:00.162Z,79.22
2022-09-14T21:45:15.821Z,79.41
2022-09-14T21:47:29.254Z,79.36
2022-09-14T21:49:42.529Z,79.84
2022-09-14T21:51:56.056Z,80.13
2022-09-14T21:54:11.886Z,80.03
2022-09-14T21:56:28.084Z,79.77
2022-09-14T21:58:41.401Z,79.31
2022-09-14T22:01:01.715Z,79.39
2022-09-14T22:03:15.043Z,79.19
2022-09-14T22:05:29.184Z,79.80
2022-09-14T22:07:43.541Z,80.05
2022-09-14T22:09:57.389Z,79.91
2022-09-14T22:12:11.205Z,80.02
2022-09-14T22:14:25.717Z,79.29
2022-09-14T22:16:40.569Z,78.45
2022-09-14T22:18:56.358Z,78.93
2022-09-14T22:21:10.136Z,79.16
2022-09-14T22:23:23.392Z,79.39
2022-09-14T22:25:36.606Z,79.65
2022-09-14T22:27:49.778Z,79.43
2022-09-14T22:30:03.062Z,79.69
2022-09-14T22:32:16.744Z,79.35
2022-09-14T22:34:30.162Z,79.53
2022-09-14T22:36:43.525Z,79.46
2022-09-14T22:38:57.937Z,79.46
2022-09-14T22:41:15.401Z,79.15
2022-09-14T22:43:29.446Z,77.88
2022-09-14T22:45:42.667Z,77.66
2022-09-14T22:47:55.927Z,77.74
2022-09-14T22:50:09.661Z,78.12
2022-09-14T22:52:22.885Z,78.62
2022-09-14T22:54:36.019Z,79.15
2022-09-14T22:56:49.498Z,79.12
2022-09-14T22:59:03.061Z,78.58
2022-09-14T23:01:17.938Z,78.30
2022-09-14T23:03:31.708Z,78.06
2022-09-14T23:05:51.853Z,78.03
2022-09-14T23:08:05.992Z,78.24
2022-09-14T23:10:19.922Z,78.60
2022-09-14T23:12:33.299Z,78.47
2022-09-14T23:14:46.468Z,77.97
2022-09-14T23:16:59.789Z,77.80
2022-09-14T23:19:17.084Z,77.66
2022-09-14T23:21:31.228Z,77.70
2022-09-14T23:23:44.503Z,78.36
2022-09-14T23:25:57.929Z,77.64
2022-09-14T23:28:14.465Z,77.90
2022-09-14T23:30:27.784Z,78.09
2022-09-14T23:32:41.036Z,78.36
2022-09-14T23:34:54.496Z,78.61
2022-09-14T23:37:07.714Z,78.74
2022-09-14T23:39:21.035Z,78.71
2022-09-14T23:41:34.648Z,78.63
2022-09-14T23:43:48.102Z,78.17
2022-09-14T23:46:01.585Z,77.81
2022-09-14T23:48:15.949Z,77.88
2022-09-14T23:50:29.722Z,76.71
2022-09-14T23:52:43.383Z,76.74
2022-09-14T23:54:57.347Z,77.00
2022-09-14T23:57:10.755Z,76.74
2022-09-14T23:59:23.954Z,76.87
